Time;durP1;ratioP1;P1;durP2;ratioP2;P2;SDS_P1;SDS_P2;PMS_P1;PMS_P2;Temp;Humidity;BMP_temperature;BMP_pressure;BME280_temperature;BME280_humidity;BME280_pressure;Samples;Min_cycle;Max_cycle;Signal;HPM_P1;HPM_P2
2023/08/04 00:00:51;;;;;;;;;;;;;;;;;;5031895;28;19921;-61
2023/08/04 00:03:17;;;;;;;;;;;;;;;;;;5032486;28;19939;-61
2023/08/04 00:05:43;;;;;;;;;;;;;;;;;;5014738;28;19921;-61
2023/08/04 00:08:09;;;;;;;;;;;;;;;;;;5032165;28;19937;-62
2023/08/04 00:10:35;;;;;;;;;;;;;;;;;;5027265;28;19932;-62
2023/08/04 00:13:01;;;;;;;;;;;;;;;;;;5032680;28;19931;-61
2023/08/04 00:15:27;;;;;;;;;;;;;;;;;;5038970;28;19921;-61
2023/08/04 00:17:53;;;;;;;;;;;;;;;;;;5052130;28;19927;-61
2023/08/04 00:20:19;;;;;;;;;;;;;;;;;;5034166;28;19947;-62
2023/08/04 00:22:45;;;;;;;;;;;;;;;;;;5052279;28;19925;-61
2023/08/04 00:25:11;;;;;;;;;;;;;;;;;;5052330;28;20362;-62
2023/08/04 00:27:36;;;;;;;;;;;;;;;;;;5017261;28;19932;-61
2023/08/04 00:30:02;;;;;;;;;;;;;;;;;;5050094;28;20478;-61
2023/08/04 00:32:28;;;;;;;;;;;;;;;;;;5033407;28;20317;-61
2023/08/04 00:34:54;;;;;;;;;;;;;;;;;;5052130;28;19928;-61
2023/08/04 00:37:20;;;;;;;;;;;;;;;;;;5052082;28;19921;-61
2023/08/04 00:39:46;;;;;;;;;;;;;;;;;;5050789;28;19983;-61
2023/08/04 00:42:12;;;;;;;;;;;;;;;;;;5044157;28;20278;-61
2023/08/04 00:44:38;;;;;;;;;;;;;;;;;;5030036;28;19928;-61
2023/08/04 00:47:04;;;;;;;;;;;;;;;;;;5049158;28;19921;-62
2023/08/04 00:49:30;;;;;;;;;;;;;;;;;;5049645;28;20344;-61
2023/08/04 00:51:55;;;;;;;;;;;;;;;;;;5033782;28;20051;-61
2023/08/04 00:54:22;;;;;;;;;;;;;;;;;;5051570;28;19925;-61
2023/08/04 00:56:48;;;;;;;;;;;;;;;;;;5049512;28;19921;-61
2023/08/04 00:59:14;;;;;;;;;;;;;;;;;;5032771;28;20298;-62
2023/08/04 01:01:40;;;;;;;;;;;;;;;;;;5051418;28;19954;-61
2023/08/04 01:04:06;;;;;;;;;;;;;;;;;;5051385;28;19963;-61
2023/08/04 01:06:32;;;;;;;;;;;;;;;;;;5016999;28;19927;-62
2023/08/04 01:08:57;;;;;;;;;;;;;;;;;;5051367;28;19929;-61
2023/08/04 01:11:23;;;;;;;;;;;;;;;;;;5051483;28;19927;-61
2023/08/04 01:13:49;;;;;;;;;;;;;;;;;;5051365;28;19925;-61
2023/08/04 01:16:15;;;;;;;;;;;;;;;;;;5040329;28;19929;-61
2023/08/04 01:18:41;;;;;;;;;;;;;;;;;;5051319;28;19931;-61
2023/08/04 01:21:07;;;;;;;;;;;;;;;;;;5051201;28;20350;-61
2023/08/04 01:23:33;;;;;;;;;;;;;;;;;;5051423;28;19924;-62
2023/08/04 01:25:59;;;;;;;;;;;;;;;;;;5051709;28;19924;-61
2023/08/04 01:28:25;;;;;;;;;;;;;;;;;;5033298;28;19945;-61
2023/08/04 01:30:51;;;;;;;;;;;;;;;;;;5049770;28;19931;-61
2023/08/04 01:33:16;;;;;;;;;;;;;;;;;;5031350;28;19921;-61
2023/08/04 01:35:42;;;;;;;;;;;;;;;;;;5030761;28;20329;-61
2023/08/04 01:38:08;;;;;;;;;;;;;;;;;;5050373;28;20027;-61
2023/08/04 01:40:34;;;;;;;;;;;;;;;;;;5050177;28;20067;-61
2023/08/04 01:43:00;;;;;;;;;;;;;;;;;;5032284;28;20436;-62
2023/08/04 01:45:26;;;;;;;;;;;;;;;;;;5050305;28;19921;-62
2023/08/04 01:47:52;;;;;;;;;;;;;;;;;;5041714;28;19940;-62
2023/08/04 01:50:18;;;;;;;;;;;;;;;;;;5046047;28;20378;-62
2023/08/04 01:52:44;;;;;;;;;;;;;;;;;;5051079;28;19928;-61
2023/08/04 01:55:10;;;;;;;;;;;;;;;;;;5032704;28;19929;-61
2023/08/04 01:57:35;;;;;;;;;;;;;;;;;;5051269;28;20006;-61
2023/08/04 02:00:02;;;;;;;;;;;;;;;;;;5029742;28;19925;-61
2023/08/04 02:02:28;;;;;;;;;;;;;;;;;;5031495;28;19921;-61
2023/08/04 02:04:54;;;;;;;;;;;;;;;;;;5039282;28;19928;-61
2023/08/04 02:07:20;;;;;;;;;;;;;;;;;;5048949;28;20382;-61
2023/08/04 02:09:45;;;;;;;;;;;;;;;;;;5033815;28;19925;-61
2023/08/04 02:12:11;;;;;;;;;;;;;;;;;;5051576;28;19921;-61
2023/08/04 02:14:37;;;;;;;;;;;;;;;;;;5052968;28;20012;-61
2023/08/04 02:17:03;;;;;;;;;;;;;;;;;;5052750;28;19925;-61
2023/08/04 02:19:29;;;;;;;;;;;;;;;;;;5053176;28;19969;-61
2023/08/04 02:21:55;;;;;;;;;;;;;;;;;;5052306;28;20262;-61
2023/08/04 02:24:21;;;;;;;;;;;;;;;;;;5051352;28;19920;-61
2023/08/04 02:26:47;;;;;;;;;;;;;;;;;;5051369;28;19925;-61
2023/08/04 02:29:13;;;;;;;;;;;;;;;;;;5049123;28;19936;-61
2023/08/04 02:31:39;;;;;;;;;;;;;;;;;;5032907;28;19920;-61
2023/08/04 02:34:04;;;;;;;;;;;;;;;;;;5053647;28;19925;-61
2023/08/04 02:36:30;;;;;;;;;;;;;;;;;;5052994;28;19978;-61
2023/08/04 02:38:56;;;;;;;;;;;;;;;;;;5052884;28;20320;-61
2023/08/04 02:41:22;;;;;;;;;;;;;;;;;;5050545;28;19974;-61
2023/08/04 02:43:48;;;;;;;;;;;;;;;;;;5051271;28;19921;-61
2023/08/04 02:46:14;;;;;;;;;;;;;;;;;;5051220;28;20012;-61
2023/08/04 02:48:40;;;;;;;;;;;;;;;;;;5052834;28;19920;-61
2023/08/04 02:51:06;;;;;;;;;;;;;;;;;;5048285;28;19928;-61
2023/08/04 02:53:32;;;;;;;;;;;;;;;;;;5053815;28;19920;-61
2023/08/04 02:55:58;;;;;;;;;;;;;;;;;;5051782;28;20011;-62
2023/08/04 02:58:24;;;;;;;;;;;;;;;;;;5033794;28;20302;-61
2023/08/04 03:00:49;;;;;;;;;;;;;;;;;;5050017;28;19925;-61
2023/08/04 03:03:15;;;;;;;;;;;;;;;;;;5034940;28;19979;-61
2023/08/04 03:05:41;;;;;;;;;;;;;;;;;;5051658;28;19991;-61
2023/08/04 03:08:07;;;;;;;;;;;;;;;;;;5033584;28;20004;-61
2023/08/04 03:10:33;;;;;;;;;;;;;;;;;;5052341;28;19929;-61
2023/08/04 03:12:59;;;;;;;;;;;;;;;;;;5033615;28;20019;-61
2023/08/04 03:15:25;;;;;;;;;;;;;;;;;;5051211;28;19924;-61
2023/08/04 03:17:51;;;;;;;;;;;;;;;;;;5053364;28;19925;-61
2023/08/04 03:20:17;;;;;;;;;;;;;;;;;;5053217;28;19920;-61
2023/08/04 03:22:43;;;;;;;;;;;;;;;;;;5053160;28;19920;-61
2023/08/04 03:25:09;;;;;;;;;;;;;;;;;;5051982;28;20402;-61
2023/08/04 03:27:35;;;;;;;;;;;;;;;;;;5048222;28;19928;-62
2023/08/04 03:30:02;;;;;;;;;;;;;;;;;;5033293;28;19925;-61
2023/08/04 03:32:28;;;;;;;;;;;;;;;;;;5032882;28;19928;-61
2023/08/04 03:34:54;;;;;;;;;;;;;;;;;;5053036;28;19921;-61
2023/08/04 03:37:20;;;;;;;;;;;;;;;;;;5034836;28;19921;-61
2023/08/04 03:39:46;;;;;;;;;;;;;;;;;;5053214;28;19971;-61
2023/08/04 03:42:12;;;;;;;;;;;;;;;;;;5051747;28;19927;-61
2023/08/04 03:44:37;;;;;;;;;;;;;;;;;;5033091;28;20563;-61
2023/08/04 03:47:03;;;;;;;;;;;;;;;;;;5034009;28;19966;-61
2023/08/04 03:49:29;;;;;;;;;;;;;;;;;;5049781;28;19933;-61
2023/08/04 03:51:55;;;;;;;;;;;;;;;;;;5031080;28;19928;-61
2023/08/04 03:54:21;;;;;;;;;;;;;;;;;;5032706;28;19920;-61
2023/08/04 03:56:47;;;;;;;;;;;;;;;;;;5051434;28;20331;-61
2023/08/04 03:59:13;;;;;;;;;;;;;;;;;;5039809;28;19932;-61
2023/08/04 04:01:39;;;;;;;;;;;;;;;;;;5032313;28;19925;-61
2023/08/04 04:04:05;;;;;;;;;;;;;;;;;;5052009;28;19920;-61
2023/08/04 04:06:31;;;;;;;;;;;;;;;;;;5051606;28;19921;-62
2023/08/04 04:08:57;;;;;;;;;;;;;;;;;;5051279;28;19928;-61
2023/08/04 04:11:23;;;;;;;;;;;;;;;;;;5051799;28;19928;-61
2023/08/04 04:13:48;;;;;;;;;;;;;;;;;;5052470;28;19920;-62
2023/08/04 04:16:14;;;;;;;;;;;;;;;;;;5040218;28;20260;-62
2023/08/04 04:18:40;;;;;;;;;;;;;;;;;;5030533;28;19931;-61
2023/08/04 04:21:06;;;;;;;;;;;;;;;;;;5034277;28;19920;-61
2023/08/04 04:23:32;;;;;;;;;;;;;;;;;;5050914;28;20401;-61
2023/08/04 04:25:58;;;;;;;;;;;;;;;;;;5051837;28;19970;-61
2023/08/04 04:28:24;;;;;;;;;;;;;;;;;;5047788;28;19925;-61
2023/08/04 04:30:50;;;;;;;;;;;;;;;;;;5051912;28;19982;-61
2023/08/04 04:33:15;;;;;;;;;;;;;;;;;;5043401;28;19921;-61
2023/08/04 04:35:41;;;;;;;;;;;;;;;;;;5014338;28;20455;-61
2023/08/04 04:38:07;;;;;;;;;;;;;;;;;;5038183;28;19925;-61
2023/08/04 04:40:33;;;;;;;;;;;;;;;;;;5051535;28;19927;-61
2023/08/04 04:42:59;;;;;;;;;;;;;;;;;;5043512;28;20469;-61
2023/08/04 04:45:25;;;;;;;;;;;;;;;;;;5050388;28;19920;-61
2023/08/04 04:47:51;;;;;;;;;;;;;;;;;;5050747;28;19975;-61
2023/08/04 04:50:17;;;;;;;;;;;;;;;;;;5048739;28;19994;-61
2023/08/04 04:52:43;;;;;;;;;;;;;;;;;;5049351;28;19921;-61
2023/08/04 04:55:08;;;;;;;;;;;;;;;;;;5033047;28;20554;-61
2023/08/04 04:57:39;;;;;;;;;;;;;;;;;;5050724;28;20013;-61
2023/08/04 05:00:05;;;;;;;;;;;;;;;;;;5033621;28;19928;-61
2023/08/04 05:02:31;;;;;;;;;;;;;;;;;;5051274;28;19924;-62
2023/08/04 05:04:57;;;;;;;;;;;;;;;;;;5047151;28;19947;-61
2023/08/04 05:07:23;;;;;;;;;;;;;;;;;;5030543;28;19940;-61
2023/08/04 05:09:49;;;;;;;;;;;;;;;;;;5030709;28;19932;-62
2023/08/04 05:12:15;;;;;;;;;;;;;;;;;;5031183;28;20322;-62
2023/08/04 05:14:40;;;;;;;;;;;;;;;;;;5015542;28;19952;-61
2023/08/04 05:17:06;;;;;;;;;;;;;;;;;;5050647;28;19955;-62
2023/08/04 05:19:32;;;;;;;;;;;;;;;;;;5038168;28;19921;-61
2023/08/04 05:21:58;;;;;;;;;;;;;;;;;;5070977;22;19947;-61
2023/08/04 05:24:24;;;;;;;;;;;;;;;;;;5066459;28;19967;-61
2023/08/04 05:26:50;;;;;;;;;;;;;;;;;;5065050;28;19930;-61
2023/08/04 05:29:16;;;;;;;;;;;;;;;;;;5061134;28;19927;-61
2023/08/04 05:31:42;;;;;;;;;;;;;;;;;;5069188;28;19932;-61
2023/08/04 05:34:08;;;;;;;;;;;;;;;;;;5069122;28;19921;-61
2023/08/04 05:36:34;;;;;;;;;;;;;;;;;;5060760;28;19925;-61
2023/08/04 05:38:59;;;;;;;;;;;;;;;;;;5068402;28;20238;-61
2023/08/04 05:41:25;;;;;;;;;;;;;;;;;;5066334;28;20015;-61
2023/08/04 05:43:51;;;;;;;;;;;;;;;;;;5065315;28;19924;-61
2023/08/04 05:46:17;;;;;;;;;;;;;;;;;;5068690;28;19966;-61
2023/08/04 05:48:43;;;;;;;;;;;;;;;;;;5070565;28;19920;-61
2023/08/04 05:51:09;;;;;;;;;;;;;;;;;;5070270;28;20381;-61
2023/08/04 05:53:35;;;;;;;;;;;;;;;;;;5066647;28;19929;-61
2023/08/04 05:56:01;;;;;;;;;;;;;;;;;;5068638;28;19925;-61
2023/08/04 05:58:27;;;;;;;;;;;;;;;;;;5063404;28;19920;-61
2023/08/04 06:00:53;;;;;;;;;;;;;;;;;;5070138;28;19924;-61
2023/08/04 06:03:19;;;;;;;;;;;;;;;;;;5072804;28;19924;-61
2023/08/04 06:05:45;;;;;;;;;;;;;;;;;;5072582;28;19929;-61
2023/08/04 06:08:10;;;;;;;;;;;;;;;;;;5074564;28;19920;-61
2023/08/04 06:10:36;;;;;;;;;;;;;;;;;;5071853;28;19947;-62
2023/08/04 06:13:02;;;;;;;;;;;;;;;;;;5071989;28;20377;-62
2023/08/04 06:15:28;;;;;;;;;;;;;;;;;;5068970;28;19994;-61
2023/08/04 06:17:54;;;;;;;;;;;;;;;;;;5055022;28;19921;-61
2023/08/04 06:20:20;;;;;;;;;;;;;;;;;;5072016;28;20278;-62
2023/08/04 06:22:46;;;;;;;;;;;;;;;;;;5070488;28;20058;-62
2023/08/04 06:25:14;;;;;;;;;;;;;;;;;;5071867;28;19924;-62
2023/08/04 06:27:40;;;;;;;;;;;;;;;;;;5068162;28;20277;-62
2023/08/04 06:30:05;;;;;;;;;;;;;;;;;;5071117;28;19920;-62
2023/08/04 06:32:31;;;;;;;;;;;;;;;;;;5069581;28;19931;-62
2023/08/04 06:34:57;;;;;;;;;;;;;;;;;;5068456;28;20374;-62
2023/08/04 06:37:23;;;;;;;;;;;;;;;;;;5070688;28;19982;-61
2023/08/04 06:39:49;;;;;;;;;;;;;;;;;;5064295;28;19924;-62
2023/08/04 06:42:16;;;;;;;;;;;;;;;;;;5074056;28;20122;-61
2023/08/04 06:44:41;;;;;;;;;;;;;;;;;;5069118;28;20018;-62
2023/08/04 06:47:07;;;;;;;;;;;;;;;;;;5071597;28;20008;-61
2023/08/04 06:49:34;;;;;;;;;;;;;;;;;;5070435;28;19924;-62
2023/08/04 06:52:00;;;;;;;;;;;;;;;;;;5072111;28;19925;-62
2023/08/04 06:54:26;;;;;;;;;;;;;;;;;;5069245;28;20358;-62
2023/08/04 06:56:52;;;;;;;;;;;;;;;;;;5062030;28;19924;-62
2023/08/04 06:59:18;;;;;;;;;;;;;;;;;;5066991;28;19988;-62
2023/08/04 07:01:44;;;;;;;;;;;;;;;;;;5070433;28;19920;-62
2023/08/04 07:04:10;;;;;;;;;;;;;;;;;;5063968;28;20431;-61
2023/08/04 07:06:36;;;;;;;;;;;;;;;;;;5072969;28;19998;-63
2023/08/04 07:09:02;;;;;;;;;;;;;;;;;;5050675;28;19929;-62
2023/08/04 07:11:28;;;;;;;;;;;;;;;;;;5066749;28;19925;-61
2023/08/04 07:13:53;;;;;;;;;;;;;;;;;;5059589;28;19925;-61
2023/08/04 07:16:19;;;;;;;;;;;;;;;;;;5071539;28;20720;-61
2023/08/04 07:18:45;;;;;;;;;;;;;;;;;;5073100;28;19925;-61
2023/08/04 07:21:11;;;;;;;;;;;;;;;;;;5061919;28;19920;-61
2023/08/04 07:23:37;;;;;;;;;;;;;;;;;;5071567;28;19920;-61
2023/08/04 07:26:03;;;;;;;;;;;;;;;;;;5065245;28;19997;-61
2023/08/04 07:28:29;;;;;;;;;;;;;;;;;;5070525;28;19935;-61
2023/08/04 07:30:56;;;;;;;;;;;;;;;;;;5068453;28;19924;-61
2023/08/04 07:33:22;;;;;;;;;;;;;;;;;;5063621;28;20058;-61
2023/08/04 07:35:48;;;;;;;;;;;;;;;;;;5071956;28;20015;-61
2023/08/04 07:38:14;;;;;;;;;;;;;;;;;;5071757;28;19920;-61
2023/08/04 07:40:40;;;;;;;;;;;;;;;;;;5072837;28;19931;-61
2023/08/04 07:43:10;;;;;;;;;;;;;;;;;;5065496;28;20294;-61
2023/08/04 07:45:36;;;;;;;;;;;;;;;;;;5058775;28;19955;-61
2023/08/04 07:48:02;;;;;;;;;;;;;;;;;;5070036;28;19977;-61
2023/08/04 07:50:28;;;;;;;;;;;;;;;;;;5072248;28;20007;-61
2023/08/04 07:52:54;;;;;;;;;;;;;;;;;;5069168;28;20019;-61
2023/08/04 07:55:20;;;;;;;;;;;;;;;;;;5064577;28;20517;-61
2023/08/04 07:57:45;;;;;;;;;;;;;;;;;;5070014;28;19931;-61
2023/08/04 08:00:11;;;;;;;;;;;;;;;;;;5067298;28;19928;-61
2023/08/04 08:02:37;;;;;;;;;;;;;;;;;;5068656;28;20312;-61
2023/08/04 08:05:03;;;;;;;;;;;;;;;;;;5071224;28;19924;-61
2023/08/04 08:07:29;;;;;;;;;;;;;;;;;;5064031;28;19982;-61
2023/08/04 08:09:55;;;;;;;;;;;;;;;;;;5067500;28;19925;-61
2023/08/04 08:12:21;;;;;;;;;;;;;;;;;;5069029;28;19925;-61
2023/08/04 08:14:47;;;;;;;;;;;;;;;;;;5067169;28;19920;-61
2023/08/04 08:17:13;;;;;;;;;;;;;;;;;;5066148;28;19969;-61
2023/08/04 08:19:39;;;;;;;;;;;;;;;;;;5064319;28;20017;-61
2023/08/04 08:22:05;;;;;;;;;;;;;;;;;;5067943;28;20560;-61
2023/08/04 08:24:30;;;;;;;;;;;;;;;;;;5069037;28;19974;-61
2023/08/04 08:26:56;;;;;;;;;;;;;;;;;;5064114;28;19924;-61
2023/08/04 08:29:22;;;;;;;;;;;;;;;;;;5069129;28;20410;-61
2023/08/04 08:31:48;;;;;;;;;;;;;;;;;;5067437;28;19933;-61
2023/08/04 08:34:14;;;;;;;;;;;;;;;;;;5067017;28;20329;-61
2023/08/04 08:36:40;;;;;;;;;;;;;;;;;;5068712;28;19928;-61
2023/08/04 08:39:07;;;;;;;;;;;;;;;;;;5064635;28;19930;-61
2023/08/04 08:41:32;;;;;;;;;;;;;;;;;;5069955;28;19920;-61
2023/08/04 08:43:58;;;;;;;;;;;;;;;;;;5067487;28;19930;-61
2023/08/04 08:46:25;;;;;;;;;;;;;;;;;;5068111;28;20809;-61
2023/08/04 08:48:50;;;;;;;;;;;;;;;;;;5069531;28;19927;-61
2023/08/04 08:51:17;;;;;;;;;;;;;;;;;;5071713;28;19924;-61
2023/08/04 08:53:42;;;;;;;;;;;;;;;;;;5060787;28;19924;-61
2023/08/04 08:56:09;;;;;;;;;;;;;;;;;;5065805;28;20289;-61
2023/08/04 08:58:35;;;;;;;;;;;;;;;;;;5067975;28;20023;-61
2023/08/04 09:01:01;;;;;;;;;;;;;;;;;;5065618;28;20306;-61
2023/08/04 09:03:27;;;;;;;;;;;;;;;;;;5067742;28;19930;-61
2023/08/04 09:05:52;;;;;;;;;;;;;;;;;;5064638;28;19920;-61
2023/08/04 09:08:18;;;;;;;;;;;;;;;;;;5067238;28;19928;-61
2023/08/04 09:10:44;;;;;;;;;;;;;;;;;;5067182;28;19924;-61
2023/08/04 09:13:10;;;;;;;;;;;;;;;;;;5067924;28;20020;-61
2023/08/04 09:15:36;;;;;;;;;;;;;;;;;;5065739;28;20019;-61
2023/08/04 09:18:02;;;;;;;;;;;;;;;;;;5069564;28;19920;-61
2023/08/04 09:20:28;;;;;;;;;;;;;;;;;;5072063;28;19924;-61
2023/08/04 09:22:54;;;;;;;;;;;;;;;;;;5071301;28;20011;-62
2023/08/04 09:25:20;;;;;;;;;;;;;;;;;;5075588;28;20420;-61
2023/08/04 09:27:49;;;;;;;;;;;;;;;;;;5070607;28;19920;-61
2023/08/04 09:30:15;;;;;;;;;;;;;;;;;;5069623;28;19928;-61
2023/08/04 09:32:41;;;;;;;;;;;;;;;;;;5071085;28;19978;-61
2023/08/04 09:35:08;;;;;;;;;;;;;;;;;;5067741;28;20523;-61
2023/08/04 09:37:34;;;;;;;;;;;;;;;;;;5072243;28;19936;-61
2023/08/04 09:39:59;;;;;;;;;;;;;;;;;;5073497;28;19924;-61
2023/08/04 09:42:25;;;;;;;;;;;;;;;;;;5072929;28;19986;-61
2023/08/04 09:44:55;;;;;;;;;;;;;;;;;;5073989;28;19924;-61
2023/08/04 09:47:22;;;;;;;;;;;;;;;;;;5072049;28;20011;-61
2023/08/04 09:49:48;;;;;;;;;;;;;;;;;;5063603;28;20526;-61
2023/08/04 09:52:14;;;;;;;;;;;;;;;;;;5071564;28;19928;-61
2023/08/04 09:54:39;;;;;;;;;;;;;;;;;;5068856;28;19970;-61
2023/08/04 09:57:05;;;;;;;;;;;;;;;;;;5073294;28;19921;-61
2023/08/04 09:59:31;;;;;;;;;;;;;;;;;;5070486;28;19958;-61
2023/08/04 10:01:58;;;;;;;;;;;;;;;;;;5062612;28;19921;-61
2023/08/04 10:04:23;;;;;;;;;;;;;;;;;;5074582;28;19920;-61
2023/08/04 10:06:49;;;;;;;;;;;;;;;;;;5064712;28;20386;-61
2023/08/04 10:09:15;;;;;;;;;;;;;;;;;;5067449;28;19931;-61
2023/08/04 10:11:41;;;;;;;;;;;;;;;;;;5072849;28;19932;-61
2023/08/04 10:14:08;;;;;;;;;;;;;;;;;;5051169;28;20416;-61
2023/08/04 10:16:34;;;;;;;;;;;;;;;;;;5073186;28;19925;-61
2023/08/04 10:19:00;;;;;;;;;;;;;;;;;;5072581;28;19920;-61
2023/08/04 10:21:27;;;;;;;;;;;;;;;;;;5063081;28;20289;-65
2023/08/04 10:23:53;;;;;;;;;;;;;;;;;;5067153;28;19940;-66
2023/08/04 10:26:21;;;;;;;;;;;;;;;;;;5065824;28;21338;-66
2023/08/04 10:28:46;;;;;;;;;;;;;;;;;;5071592;28;19920;-65
2023/08/04 10:31:13;;;;;;;;;;;;;;;;;;5073308;28;20351;-65
2023/08/04 10:33:39;;;;;;;;;;;;;;;;;;5071618;28;20324;-65
2023/08/04 10:36:05;;;;;;;;;;;;;;;;;;5069453;28;19920;-65
2023/08/04 10:38:31;;;;;;;;;;;;;;;;;;5071216;28;19921;-65
2023/08/04 10:40:57;;;;;;;;;;;;;;;;;;5068809;28;19920;-65
2023/08/04 10:43:23;;;;;;;;;;;;;;;;;;5070003;28;19924;-65
2023/08/04 10:45:49;;;;;;;;;;;;;;;;;;5072742;28;20415;-65
2023/08/04 10:48:15;;;;;;;;;;;;;;;;;;5070424;28;20286;-65
2023/08/04 10:50:41;;;;;;;;;;;;;;;;;;5064474;28;19935;-65
2023/08/04 10:53:07;;;;;;;;;;;;;;;;;;5052350;28;19931;-65
2023/08/04 10:55:32;;;;;;;;;;;;;;;;;;5062319;28;19959;-65
2023/08/04 10:57:58;;;;;;;;;;;;;;;;;;5072569;28;20351;-65
2023/08/04 11:00:24;;;;;;;;;;;;;;;;;;5061067;28;20009;-65
2023/08/04 11:02:50;;;;;;;;;;;;;;;;;;5053868;28;20274;-65
2023/08/04 11:05:16;;;;;;;;;;;;;;;;;;5053608;28;19921;-65
2023/08/04 11:07:42;;;;;;;;;;;;;;;;;;5053380;28;19964;-65
2023/08/04 11:10:08;;;;;;;;;;;;;;;;;;5053240;28;19931;-65
2023/08/04 11:12:34;;;;;;;;;;;;;;;;;;5059041;28;19925;-65
2023/08/04 11:15:00;;;;;;;;;;;;;;;;;;5071357;28;20352;-65
2023/08/04 11:17:26;;;;;;;;;;;;;;;;;;5070382;28;19921;-65
2023/08/04 11:19:52;;;;;;;;;;;;;;;;;;5065329;28;20262;-65
2023/08/04 11:22:18;;;;;;;;;;;;;;;;;;5055274;28;19931;-66
2023/08/04 11:24:44;;;;;;;;;;;;;;;;;;5071409;28;19920;-65
2023/08/04 11:27:10;;;;;;;;;;;;;;;;;;5073506;28;19924;-66
2023/08/04 11:29:36;;;;;;;;;;;;;;;;;;5070640;28;20393;-66
2023/08/04 11:32:02;;;;;;;;;;;;;;;;;;5067298;28;19960;-65
2023/08/04 11:34:28;;;;;;;;;;;;;;;;;;5066506;28;20010;-67
2023/08/04 11:36:54;;;;;;;;;;;;;;;;;;5062075;28;19959;-65
2023/08/04 11:39:20;;;;;;;;;;;;;;;;;;5068969;28;19947;-65
2023/08/04 11:41:46;;;;;;;;;;;;;;;;;;5069979;28;19920;-65
2023/08/04 11:44:12;;;;;;;;;;;;;;;;;;5071474;28;20010;-65
2023/08/04 11:46:38;;;;;;;;;;;;;;;;;;5072201;28;19924;-65
2023/08/04 11:49:04;;;;;;;;;;;;;;;;;;5070356;28;19929;-65
2023/08/04 11:51:29;;;;;;;;;;;;;;;;;;5071732;28;19924;-65
2023/08/04 11:53:55;;;;;;;;;;;;;;;;;;5071408;28;19964;-65
2023/08/04 11:56:21;;;;;;;;;;;;;;;;;;5068574;28;20023;-65
2023/08/04 11:58:50;;;;;;;;;;;;;;;;;;5069447;28;19920;-65
2023/08/04 12:01:16;;;;;;;;;;;;;;;;;;5070728;28;19920;-65
2023/08/04 12:03:42;;;;;;;;;;;;;;;;;;5070595;28;19928;-65
2023/08/04 12:06:08;;;;;;;;;;;;;;;;;;5072041;28;19980;-65
2023/08/04 12:08:34;;;;;;;;;;;;;;;;;;5070952;28;19931;-65
2023/08/04 12:11:01;;;;;;;;;;;;;;;;;;5072236;28;19976;-65
2023/08/04 12:13:27;;;;;;;;;;;;;;;;;;5066650;28;20007;-65
2023/08/04 12:15:53;;;;;;;;;;;;;;;;;;5072311;28;20369;-64
2023/08/04 12:18:19;;;;;;;;;;;;;;;;;;5072259;28;19920;-65
2023/08/04 12:20:45;;;;;;;;;;;;;;;;;;5070443;28;19931;-65
2023/08/04 12:23:10;;;;;;;;;;;;;;;;;;5071968;28;20560;-65
2023/08/04 12:25:36;;;;;;;;;;;;;;;;;;5064065;28;19928;-65
2023/08/04 12:28:02;;;;;;;;;;;;;;;;;;5071250;28;19920;-65
2023/08/04 12:30:28;;;;;;;;;;;;;;;;;;5068690;28;19931;-65
2023/08/04 12:32:54;;;;;;;;;;;;;;;;;;5071528;28;20040;-65
2023/08/04 12:35:20;;;;;;;;;;;;;;;;;;5071153;28;20425;-64
2023/08/04 12:37:46;;;;;;;;;;;;;;;;;;5071627;28;19920;-65
2023/08/04 12:40:12;;;;;;;;;;;;;;;;;;5071843;28;19921;-65
2023/08/04 12:42:37;;;;;;;;;;;;;;;;;;5071884;28;19924;-65
2023/08/04 12:45:03;;;;;;;;;;;;;;;;;;5071822;28;19928;-65
2023/08/04 12:47:30;;;;;;;;;;;;;;;;;;5064641;28;20385;-65
2023/08/04 12:49:56;;;;;;;;;;;;;;;;;;5070454;28;19934;-65
2023/08/04 12:52:22;;;;;;;;;;;;;;;;;;5070318;28;20366;-64
2023/08/04 12:54:48;;;;;;;;;;;;;;;;;;5071773;28;19927;-65
2023/08/04 12:57:13;;;;;;;;;;;;;;;;;;5071831;28;19927;-65
2023/08/04 12:59:39;;;;;;;;;;;;;;;;;;5066310;28;20999;-65
2023/08/04 13:02:05;;;;;;;;;;;;;;;;;;5070136;28;19970;-64
2023/08/04 13:04:33;;;;;;;;;;;;;;;;;;5069242;28;19928;-65
2023/08/04 13:06:59;;;;;;;;;;;;;;;;;;5070003;28;20269;-65
2023/08/04 13:09:25;;;;;;;;;;;;;;;;;;5071609;28;19931;-65
2023/08/04 13:11:51;;;;;;;;;;;;;;;;;;5070158;28;19930;-65
2023/08/04 13:14:17;;;;;;;;;;;;;;;;;;5071560;28;19924;-65
2023/08/04 13:16:43;;;;;;;;;;;;;;;;;;5070350;28;20389;-65
2023/08/04 13:19:09;;;;;;;;;;;;;;;;;;5071639;28;20461;-64
2023/08/04 13:21:35;;;;;;;;;;;;;;;;;;5058108;28;20002;-65
2023/08/04 13:24:01;;;;;;;;;;;;;;;;;;5051633;28;19998;-65
2023/08/04 13:26:26;;;;;;;;;;;;;;;;;;5049949;28;20300;-65
2023/08/04 13:28:52;;;;;;;;;;;;;;;;;;5061662;28;20389;-65
2023/08/04 13:31:18;;;;;;;;;;;;;;;;;;5070437;28;19925;-65
2023/08/04 13:33:44;;;;;;;;;;;;;;;;;;5070404;28;19924;-65
2023/08/04 13:36:10;;;;;;;;;;;;;;;;;;5069742;28;19997;-65
2023/08/04 13:38:36;;;;;;;;;;;;;;;;;;5070571;28;20051;-65
2023/08/04 13:41:02;;;;;;;;;;;;;;;;;;5070632;28;19921;-65
2023/08/04 13:43:28;;;;;;;;;;;;;;;;;;5070206;28;20301;-65
2023/08/04 13:45:54;;;;;;;;;;;;;;;;;;5070224;28;19920;-65
2023/08/04 13:48:19;;;;;;;;;;;;;;;;;;5070121;28;20158;-65
2023/08/04 13:50:45;;;;;;;;;;;;;;;;;;5070580;28;19925;-65
2023/08/04 13:53:11;;;;;;;;;;;;;;;;;;5050270;28;20293;-65
2023/08/04 13:55:37;;;;;;;;;;;;;;;;;;5066824;28;19927;-64
2023/08/04 13:58:03;;;;;;;;;;;;;;;;;;5072071;28;19936;-65
2023/08/04 14:00:29;;;;;;;;;;;;;;;;;;5070333;28;20328;-65
2023/08/04 14:02:55;;;;;;;;;;;;;;;;;;5068881;28;19924;-63
2023/08/04 14:05:21;;;;;;;;;;;;;;;;;;5073333;28;19927;-64
2023/08/04 14:07:47;;;;;;;;;;;;;;;;;;5074814;28;20406;-64
2023/08/04 14:10:13;;;;;;;;;;;;;;;;;;5056501;28;19932;-64
2023/08/04 14:12:39;;;;;;;;;;;;;;;;;;5064228;28;19932;-64
2023/08/04 14:15:05;;;;;;;;;;;;;;;;;;5067527;28;20297;-65
2023/08/04 14:17:31;;;;;;;;;;;;;;;;;;5068877;28;20046;-65
2023/08/04 14:19:57;;;;;;;;;;;;;;;;;;5065950;28;19928;-65
2023/08/04 14:22:22;;;;;;;;;;;;;;;;;;5068438;28;20311;-65
2023/08/04 14:24:49;;;;;;;;;;;;;;;;;;5067457;28;19920;-65
2023/08/04 14:27:15;;;;;;;;;;;;;;;;;;5068262;28;19921;-64
2023/08/04 14:29:41;;;;;;;;;;;;;;;;;;5072957;28;19982;-64
2023/08/04 14:32:07;;;;;;;;;;;;;;;;;;5073564;28;20422;-65
2023/08/04 14:34:35;;;;;;;;;;;;;;;;;;5069398;28;19931;-65
2023/08/04 14:37:01;;;;;;;;;;;;;;;;;;5069557;28;19928;-65
2023/08/04 14:39:26;;;;;;;;;;;;;;;;;;5070577;28;20348;-65
2023/08/04 14:41:52;;;;;;;;;;;;;;;;;;5055884;28;19929;-65
2023/08/04 14:44:18;;;;;;;;;;;;;;;;;;5073083;28;20408;-65
2023/08/04 14:46:46;;;;;;;;;;;;;;;;;;5063732;28;19921;-66
2023/08/04 14:49:12;;;;;;;;;;;;;;;;;;5053647;28;20382;-65
2023/08/04 14:51:38;;;;;;;;;;;;;;;;;;5072136;28;19920;-64
2023/08/04 14:54:03;;;;;;;;;;;;;;;;;;5071930;28;19921;-65
2023/08/04 14:56:29;;;;;;;;;;;;;;;;;;5072426;28;19932;-65
2023/08/04 14:58:55;;;;;;;;;;;;;;;;;;5052914;28;19928;-64
2023/08/04 15:01:21;;;;;;;;;;;;;;;;;;5067743;28;19924;-64
2023/08/04 15:03:49;;;;;;;;;;;;;;;;;;5069381;28;19959;-64
2023/08/04 15:06:15;;;;;;;;;;;;;;;;;;5070632;28;20015;-64
2023/08/04 15:08:41;;;;;;;;;;;;;;;;;;5073473;28;20019;-65
2023/08/04 15:11:07;;;;;;;;;;;;;;;;;;5073022;28;19929;-65
2023/08/04 15:13:33;;;;;;;;;;;;;;;;;;5073338;28;19920;-65
2023/08/04 15:15:59;;;;;;;;;;;;;;;;;;5070967;28;19956;-65
2023/08/04 15:18:24;;;;;;;;;;;;;;;;;;5070181;28;19971;-65
2023/08/04 15:20:50;;;;;;;;;;;;;;;;;;5071452;28;20261;-65
2023/08/04 15:23:16;;;;;;;;;;;;;;;;;;5072284;28;19924;-66
2023/08/04 15:25:42;;;;;;;;;;;;;;;;;;5065715;28;19990;-65
2023/08/04 15:28:08;;;;;;;;;;;;;;;;;;5063995;28;19978;-65
2023/08/04 15:30:37;;;;;;;;;;;;;;;;;;5053516;28;19929;-65
2023/08/04 15:33:03;;;;;;;;;;;;;;;;;;5053230;28;19925;-65
2023/08/04 15:35:29;;;;;;;;;;;;;;;;;;5052800;28;19921;-65
2023/08/04 15:37:55;;;;;;;;;;;;;;;;;;5071707;28;20378;-65
2023/08/04 15:40:21;;;;;;;;;;;;;;;;;;5072781;28;19959;-65
2023/08/04 15:42:47;;;;;;;;;;;;;;;;;;5062621;28;19967;-65
2023/08/04 15:45:13;;;;;;;;;;;;;;;;;;5069820;28;19924;-65
2023/08/04 15:47:39;;;;;;;;;;;;;;;;;;5065480;28;19925;-64
2023/08/04 15:50:04;;;;;;;;;;;;;;;;;;5072045;28;19976;-65
2023/08/04 15:52:30;;;;;;;;;;;;;;;;;;5069649;28;20007;-65
2023/08/04 15:54:59;;;;;;;;;;;;;;;;;;5070434;28;20443;-65
2023/08/04 15:57:25;;;;;;;;;;;;;;;;;;5071220;28;19924;-65
2023/08/04 15:59:51;;;;;;;;;;;;;;;;;;5060431;28;19921;-66
2023/08/04 16:02:17;;;;;;;;;;;;;;;;;;5070056;28;20247;-65
2023/08/04 16:04:43;;;;;;;;;;;;;;;;;;5066421;28;19921;-65
2023/08/04 16:07:09;;;;;;;;;;;;;;;;;;5071227;28;20015;-64
2023/08/04 16:09:35;;;;;;;;;;;;;;;;;;5072484;28;19925;-64
2023/08/04 16:12:01;;;;;;;;;;;;;;;;;;5071130;28;19921;-65
2023/08/04 16:14:26;;;;;;;;;;;;;;;;;;5069849;28;20349;-65
2023/08/04 16:16:52;;;;;;;;;;;;;;;;;;5068415;28;20301;-66
2023/08/04 16:19:18;;;;;;;;;;;;;;;;;;5065920;28;19924;-66
2023/08/04 16:21:44;;;;;;;;;;;;;;;;;;5072231;28;19920;-65
2023/08/04 16:24:10;;;;;;;;;;;;;;;;;;5068039;28;19929;-65
2023/08/04 16:26:36;;;;;;;;;;;;;;;;;;5066815;28;19932;-65
2023/08/04 16:29:02;;;;;;;;;;;;;;;;;;5067969;28;19920;-65
2023/08/04 16:31:28;;;;;;;;;;;;;;;;;;5068640;28;20018;-65
2023/08/04 16:33:54;;;;;;;;;;;;;;;;;;5068661;28;19921;-66
2023/08/04 16:36:20;;;;;;;;;;;;;;;;;;5068629;28;19935;-65